Time;durP1;ratioP1;P1;durP2;ratioP2;P2;SDS_P1;SDS_P2;PMS_P1;PMS_P2;Temp;Humidity;BMP_temperature;BMP_pressure;BME280_temperature;BME280_humidity;BME280_pressure;Samples;Min_cycle;Max_cycle;Signal;HPM_P1;HPM_P2
2022/08/17 00:01:50;;;;;;;6.80;4.68;;;;;;;18.96;100.00;100154.06;5230835;28;20051;-76
2022/08/17 00:04:21;;;;;;;6.50;4.43;;;;;;;18.97;100.00;100151.28;5235537;28;20028;-75
2022/08/17 00:06:52;;;;;;;6.85;4.80;;;;;;;19.13;100.00;100153.63;5230356;28;20037;-76
2022/08/17 00:09:22;;;;;;;6.90;4.28;;;;;;;19.15;100.00;100154.34;5230486;28;20206;-76
2022/08/17 00:11:52;;;;;;;9.57;4.47;;;;;;;18.96;100.00;100149.59;5228867;28;20028;-76
2022/08/17 00:14:23;;;;;;;5.63;4.10;;;;;;;19.01;100.00;100147.47;5232213;28;20028;-76
2022/08/17 00:16:53;;;;;;;6.30;4.25;;;;;;;19.15;100.00;100155.19;5234287;28;20398;-75
2022/08/17 00:19:25;;;;;;;6.40;4.55;;;;;;;19.02;100.00;100161.53;5231495;28;20025;-77
2022/08/17 00:21:59;;;;;;;9.57;4.30;;;;;;;18.92;100.00;100164.06;5232936;28;20465;-75
2022/08/17 00:24:29;;;;;;;5.43;4.05;;;;;;;19.08;100.00;100161.91;5234996;28;20460;-75
2022/08/17 00:27:00;;;;;;;6.57;4.55;;;;;;;18.61;100.00;100162.97;5233540;28;20060;-76
2022/08/17 00:29:30;;;;;;;5.88;4.68;;;;;;;18.49;100.00;100161.28;5214379;28;20060;-76
2022/08/17 00:32:02;;;;;;;6.22;4.90;;;;;;;18.43;100.00;100161.72;5222027;28;20051;-75
2022/08/17 00:34:32;;;;;;;6.15;4.47;;;;;;;18.35;100.00;100153.50;5232900;28;20107;-75
2022/08/17 00:37:03;;;;;;;8.48;5.75;;;;;;;18.28;100.00;100157.53;5232740;28;20135;-75
2022/08/17 00:39:33;;;;;;;8.02;4.50;;;;;;;18.22;100.00;100150.91;5228710;28;20039;-74
2022/08/17 00:42:12;;;;;;;5.97;4.25;;;;;;;18.21;100.00;100158.94;5227265;28;20029;-75
2022/08/17 00:44:43;;;;;;;6.53;4.68;;;;;;;18.27;100.00;100156.72;5234033;28;20385;-76
2022/08/17 00:47:14;;;;;;;7.65;4.78;;;;;;;18.11;100.00;100155.25;5229503;28;20044;-75
2022/08/17 00:49:44;;;;;;;7.10;4.93;;;;;;;18.17;100.00;100157.47;5234117;28;20020;-76
2022/08/17 00:52:20;;;;;;;8.52;4.43;;;;;;;18.33;100.00;100160.72;5231314;28;20028;-76
2022/08/17 00:54:53;;;;;;;7.57;5.00;;;;;;;18.20;100.00;100159.88;5230420;28;20031;-76
2022/08/17 00:57:29;;;;;;;5.90;4.70;;;;;;;18.17;100.00;100158.31;5234794;28;20033;-75
2022/08/17 01:00:15;;;;;;;8.32;4.60;;;;;;;18.12;100.00;100160.44;5230723;28;20021;-76
2022/08/17 01:02:47;;;;;;;6.00;4.53;;;;;;;18.16;100.00;100164.56;5231101;28;20091;-76
2022/08/17 01:05:22;;;;;;;7.72;4.40;;;;;;;18.28;100.00;100157.53;5234270;28;20378;-76
2022/08/17 01:07:53;;;;;;;6.43;4.32;;;;;;;18.55;100.00;100161.63;5226045;28;20044;-76
2022/08/17 01:10:31;;;;;;;5.82;4.35;;;;;;;18.39;100.00;100157.59;5225893;28;20024;-75
2022/08/17 01:13:03;;;;;;;6.55;4.38;;;;;;;18.39;100.00;100161.09;5226263;28;20030;-76
2022/08/17 01:15:40;;;;;;;8.68;4.25;;;;;;;18.51;100.00;100162.00;5232336;28;20031;-75
2022/08/17 01:18:12;;;;;;;7.07;4.40;;;;;;;18.32;100.00;100151.09;5229649;28;20091;-75
2022/08/17 01:20:54;;;;;;;6.57;4.30;;;;;;;18.35;100.00;100153.50;5233364;28;20424;-76
2022/08/17 01:23:27;;;;;;;4.90;4.40;;;;;;;18.41;100.00;100151.25;5229306;28;20086;-76
2022/08/17 01:26:00;;;;;;;7.47;4.93;;;;;;;18.55;100.00;100156.34;5234183;28;20564;-76
2022/08/17 01:28:33;;;;;;;5.60;4.13;;;;;;;18.71;100.00;100153.41;5231337;28;20036;-76
2022/08/17 01:31:06;;;;;;;6.75;4.55;;;;;;;18.73;100.00;100155.00;5232276;28;20035;-75
2022/08/17 01:33:36;;;;;;;9.00;4.70;;;;;;;18.47;100.00;100157.88;5230431;28;20024;-76
2022/08/17 01:36:08;;;;;;;6.55;4.40;;;;;;;18.10;100.00;100164.16;5232174;28;20039;-76
2022/08/17 01:38:39;;;;;;;8.23;4.57;;;;;;;17.91;100.00;100155.84;5229959;28;20035;-75
2022/08/17 01:41:14;;;;;;;9.88;5.60;;;;;;;17.89;100.00;100157.78;5222831;28;20123;-76
2022/08/17 01:43:50;;;;;;;8.18;4.72;;;;;;;17.83;100.00;100166.16;5231711;28;20017;-76
2022/08/17 01:46:28;;;;;;;7.78;4.68;;;;;;;17.69;100.00;100163.66;5225101;28;20033;-75
2022/08/17 01:48:59;;;;;;;7.88;4.53;;;;;;;17.78;100.00;100157.69;5231475;28;20551;-76
2022/08/17 01:51:31;;;;;;;8.88;4.90;;;;;;;17.66;100.00;100158.59;5231626;28;20123;-73
2022/08/17 01:54:05;;;;;;;7.13;4.65;;;;;;;17.49;100.00;100158.94;5232121;28;20025;-76
2022/08/17 01:56:39;;;;;;;5.78;4.30;;;;;;;17.46;100.00;100151.22;5232947;28;20239;-76
2022/08/17 01:59:10;;;;;;;7.90;4.32;;;;;;;17.50;100.00;100152.69;5231640;28;20090;-75
2022/08/17 02:01:42;;;;;;;7.13;4.30;;;;;;;17.73;100.00;100157.19;5230555;28;20380;-76
2022/08/17 02:04:13;;;;;;;6.18;3.95;;;;;;;17.74;100.00;100162.38;5232263;28;20466;-76
2022/08/17 02:06:43;;;;;;;6.28;4.38;;;;;;;17.57;100.00;100164.50;5229431;28;20060;-76
2022/08/17 02:09:14;;;;;;;5.75;4.40;;;;;;;17.40;100.00;100157.78;5228109;28;20016;-76
2022/08/17 02:11:44;;;;;;;5.85;4.28;;;;;;;17.33;100.00;100156.47;5220688;28;20035;-76
2022/08/17 02:14:15;;;;;;;7.63;4.45;;;;;;;17.44;100.00;100153.09;5229971;28;20028;-76
2022/08/17 02:16:45;;;;;;;9.75;4.55;;;;;;;17.56;100.00;100149.59;5232575;28;20249;-76
2022/08/17 02:19:16;;;;;;;6.80;4.47;;;;;;;17.69;100.00;100156.53;5228918;28;20063;-76
2022/08/17 02:21:51;;;;;;;7.25;4.53;;;;;;;17.59;100.00;100160.81;5232998;28;20059;-76
2022/08/17 02:24:27;;;;;;;8.45;5.63;;;;;;;17.52;100.00;100162.19;5227419;28;20032;-76
2022/08/17 02:26:58;;;;;;;7.10;4.63;;;;;;;17.53;100.00;100157.75;5232002;28;20547;-75
2022/08/17 02:29:28;;;;;;;6.78;4.88;;;;;;;17.69;100.00;100153.06;5231493;28;20024;-76
2022/08/17 02:31:59;;;;;;;9.02;5.30;;;;;;;17.48;100.00;100159.88;5228811;28;20033;-75
2022/08/17 02:34:31;;;;;;;6.38;5.07;;;;;;;17.56;100.00;100153.09;5232036;28;20044;-75
2022/08/17 02:37:01;;;;;;;6.13;4.75;;;;;;;17.82;100.00;100159.19;5230552;28;20028;-75
2022/08/17 02:39:31;;;;;;;7.10;4.97;;;;;;;17.69;100.00;100163.66;5227699;28;20051;-76
2022/08/17 02:42:02;;;;;;;8.30;4.95;;;;;;;17.44;100.00;100153.09;5224187;28;20406;-75
2022/08/17 02:44:33;;;;;;;8.63;5.15;;;;;;;17.30;100.00;100155.84;5233835;28;20036;-76
2022/08/17 02:47:03;;;;;;;7.20;4.88;;;;;;;17.26;100.00;100152.56;5234388;28;20024;-75
2022/08/17 02:49:34;;;;;;;7.03;4.75;;;;;;;17.49;100.00;100151.81;5235216;28;20375;-76
2022/08/17 02:52:06;;;;;;;6.53;4.57;;;;;;;17.27;100.00;100148.13;5234847;28;20082;-75
2022/08/17 02:54:36;;;;;;;6.70;5.28;;;;;;;17.16;100.00;100148.03;5237424;28;20047;-76
2022/08/17 02:57:06;;;;;;;8.73;5.03;;;;;;;17.16;100.00;100148.03;5235521;28;20029;-75
2022/08/17 02:59:38;;;;;;;8.07;4.72;;;;;;;17.03;100.00;100153.31;5233905;28;20029;-76
2022/08/17 03:02:10;;;;;;;7.80;4.75;;;;;;;17.04;100.00;100146.22;5234262;28;20032;-76
2022/08/17 03:04:41;;;;;;;10.35;4.93;;;;;;;17.07;100.00;100156.56;5233749;28;20406;-76
2022/08/17 03:07:11;;;;;;;5.63;4.55;;;;;;;16.99;100.00;100145.72;5235525;28;20016;-76
2022/08/17 03:09:41;;;;;;;6.60;4.60;;;;;;;16.95;100.00;100152.97;5229435;28;20017;-75
2022/08/17 03:12:13;;;;;;;7.60;4.72;;;;;;;16.93;100.00;100146.97;5224304;28;20470;-76
2022/08/17 03:14:43;;;;;;;8.52;4.82;;;;;;;16.98;100.00;100150.13;5236401;28;20051;-76
2022/08/17 03:17:13;;;;;;;9.32;5.28;;;;;;;17.02;100.00;100150.78;5232968;28;20100;-76
2022/08/17 03:19:44;;;;;;;8.02;4.72;;;;;;;17.18;100.00;100151.41;5235799;28;20074;-76
2022/08/17 03:22:14;;;;;;;8.25;5.03;;;;;;;17.23;100.00;100151.94;5232899;28;20485;-76
2022/08/17 03:24:44;;;;;;;8.15;4.80;;;;;;;17.31;100.00;100139.03;5237880;28;20055;-75
2022/08/17 03:27:15;;;;;;;5.57;4.30;;;;;;;17.49;100.00;100151.81;5237178;28;20530;-76
2022/08/17 03:29:45;;;;;;;8.13;4.80;;;;;;;17.44;100.00;100150.47;5232437;28;20617;-76
2022/08/17 03:32:16;;;;;;;9.68;5.03;;;;;;;17.22;100.00;100145.81;5235472;28;20024;-76
2022/08/17 03:34:46;;;;;;;7.75;4.60;;;;;;;17.11;100.00;100148.34;5232234;28;20025;-76
2022/08/17 03:37:17;;;;;;;6.82;4.45;;;;;;;17.00;100.00;100148.22;5235860;28;20025;-76
2022/08/17 03:39:47;;;;;;;6.38;4.93;;;;;;;17.01;100.00;100143.81;5228579;28;20071;-76
2022/08/17 03:42:23;;;;;;;8.10;4.97;;;;;;;17.17;100.00;100155.81;5220047;28;20031;-76
2022/08/17 03:44:55;;;;;;;14.30;4.90;;;;;;;17.28;100.00;100152.47;5235640;28;20032;-75
2022/08/17 03:58:54;;;;;;;9.25;4.75;;;;;;;17.44;100.00;100158.38;5223750;28;20053;-75
2022/08/17 04:01:25;;;;;;;6.70;4.80;;;;;;;17.43;100.00;100154.06;5234250;28;20056;-76
2022/08/17 04:03:56;;;;;;;6.75;5.25;;;;;;;17.35;100.00;100156.41;5232950;28;20451;-76
2022/08/17 04:06:26;;;;;;;7.55;4.90;;;;;;;17.30;100.00;100151.41;5234306;28;20116;-76
2022/08/17 04:08:56;;;;;;;8.27;5.20;;;;;;;17.11;100.00;100156.25;5230714;28;20120;-76
2022/08/17 04:11:27;;;;;;;7.07;4.82;;;;;;;17.24;100.00;100146.56;5220979;28;20054;-76
2022/08/17 04:13:57;;;;;;;6.45;4.80;;;;;;;17.55;100.00;100156.69;5231558;28;20409;-75
2022/08/17 04:16:28;;;;;;;6.85;4.78;;;;;;;17.33;100.00;100150.34;5232873;28;20029;-75
2022/08/17 04:18:59;;;;;;;5.78;4.32;;;;;;;17.43;100.00;100154.06;5233278;28;20112;-76
2022/08/17 04:21:30;;;;;;;7.53;5.07;;;;;;;17.53;100.00;100150.69;5233078;28;20535;-75
2022/08/17 04:24:01;;;;;;;7.47;4.93;;;;;;;17.25;100.00;100150.88;5234042;28;20128;-75
2022/08/17 04:26:31;;;;;;;6.50;3.95;;;;;;;17.64;100.00;100160.50;5235631;28;20554;-75
2022/08/17 04:29:02;;;;;;;9.20;4.63;;;;;;;17.15;100.00;100162.19;5232681;28;20107;-76
2022/08/17 04:31:32;;;;;;;6.82;4.50;;;;;;;16.83;100.00;100163.53;5233172;28;20389;-75
2022/08/17 04:34:03;;;;;;;8.60;4.38;;;;;;;17.04;100.00;100160.28;5232502;28;20047;-75
2022/08/17 04:36:34;;;;;;;5.97;4.35;;;;;;;17.28;100.00;100157.75;5227765;28;20033;-76
2022/08/17 04:39:04;;;;;;;8.20;4.55;;;;;;;17.42;100.00;100166.44;5230776;28;20029;-75
2022/08/17 04:44:23;;;;;;;6.63;4.53;;;;;;;17.31;100.00;100165.47;5225975;28;20052;-75
2022/08/17 04:46:54;;;;;;;6.47;4.63;;;;;;;17.22;100.00;100168.72;5215588;28;20171;-76
2022/08/17 04:49:24;;;;;;;5.80;4.53;;;;;;;17.47;100.00;100168.75;5231601;28;20031;-76
2022/08/17 04:51:54;;;;;;;8.00;4.72;;;;;;;17.68;100.00;100175.16;5234584;28;20028;-76
2022/08/17 04:54:25;;;;;;;8.07;5.10;;;;;;;17.75;100.00;100174.63;5234511;28;20023;-76
2022/08/17 04:56:55;;;;;;;8.52;4.80;;;;;;;17.82;100.00;100180.34;5233501;28;20401;-76
2022/08/17 04:59:26;;;;;;;5.68;4.65;;;;;;;17.91;100.00;100184.94;5233392;28;20316;-75
2022/08/17 05:01:56;;;;;;;6.43;4.80;;;;;;;17.87;100.00;100186.13;5231698;28;20032;-76
2022/08/17 05:04:27;;;;;;;6.38;4.45;;;;;;;18.37;100.00;100188.63;5231648;28;20420;-76
2022/08/17 05:06:57;;;;;;;7.18;4.57;;;;;;;19.10;100.00;100183.84;5231730;28;20043;-76
2022/08/17 05:09:28;;;;;;;8.07;4.38;;;;;;;19.65;98.93;100186.56;5229559;28;20016;-76
2022/08/17 05:12:01;;;;;;;7.55;4.30;;;;;;;20.72;90.48;100182.13;5222128;28;20029;-76
2022/08/17 05:14:32;;;;;;;6.28;4.03;;;;;;;21.15;86.69;100184.69;5230721;28;20489;-76
2022/08/17 05:17:02;;;;;;;9.40;3.90;;;;;;;20.51;93.73;100191.00;5230768;28;20032;-76
2022/08/17 05:19:33;;;;;;;6.65;4.10;;;;;;;20.42;93.11;100189.13;5229384;28;20039;-76
2022/08/17 05:22:04;;;;;;;7.40;4.13;;;;;;;20.91;90.86;100189.44;5230483;28;20043;-76
2022/08/17 05:24:35;;;;;;;6.65;3.88;;;;;;;20.78;92.81;100189.59;5235043;28;20029;-76
2022/08/17 05:27:05;;;;;;;8.45;4.07;;;;;;;19.76;96.90;100201.66;5231402;28;20586;-76
2022/08/17 05:29:35;;;;;;;7.07;4.10;;;;;;;20.02;96.92;100201.31;5230777;28;20024;-76
2022/08/17 05:32:11;;;;;;;6.68;4.57;;;;;;;20.02;96.73;100195.13;5231770;28;20024;-76
2022/08/17 05:34:41;;;;;;;6.53;4.68;;;;;;;20.05;94.90;100198.41;5230335;28;20028;-75
2022/08/17 05:37:11;;;;;;;7.35;4.35;;;;;;;19.92;99.23;100199.47;5228179;28;20033;-75
2022/08/17 05:39:42;;;;;;;7.00;4.55;;;;;;;20.01;96.96;100210.19;5222794;28;20033;-76
2022/08/17 05:42:17;;;;;;;7.55;4.28;;;;;;;20.70;96.93;100199.19;5227619;28;20043;-76
2022/08/17 05:44:48;;;;;;;9.80;4.30;;;;;;;21.21;92.01;100192.19;5221951;28;20077;-76
2022/08/17 05:47:20;;;;;;;6.70;4.28;;;;;;;21.09;93.36;100199.34;5223503;28;20020;-76
2022/08/17 05:49:50;;;;;;;5.85;4.13;;;;;;;21.49;92.52;100204.78;5228532;28;20048;-76
2022/08/17 05:52:33;;;;;;;5.22;3.85;;;;;;;22.45;87.58;100206.84;5220421;28;20028;-77
2022/08/17 05:55:12;;;;;;;7.63;3.90;;;;;;;21.86;90.60;100209.47;5217567;28;20104;-77
2022/08/17 05:57:58;;;;;;;5.15;3.53;;;;;;;22.05;89.68;100206.03;5226245;28;20082;-78
2022/08/17 06:00:51;;;;;;;5.80;4.00;;;;;;;22.26;88.83;100212.94;5223385;28;20027;-77
2022/08/17 06:03:35;;;;;;;6.57;4.38;;;;;;;21.96;87.12;100204.19;5225214;28;20041;-77
2022/08/17 06:06:28;;;;;;;8.82;4.30;;;;;;;21.64;91.58;100208.81;5230101;28;20355;-77
2022/08/17 06:09:21;;;;;;;4.95;4.22;;;;;;;21.43;95.99;100213.28;5218398;28;20098;-74
2022/08/17 06:12:13;;;;;;;6.82;4.93;;;;;;;22.01;91.84;100204.59;5225774;28;20090;-77
2022/08/17 06:14:58;;;;;;;7.68;4.88;;;;;;;21.73;93.82;100205.34;5228773;28;20021;-77
2022/08/17 06:17:29;;;;;;;8.05;4.30;;;;;;;21.83;95.77;100216.88;5222435;28;20437;-77
2022/08/17 06:20:07;;;;;;;6.35;4.80;;;;;;;21.46;96.81;100213.03;5228370;28;20589;-77
2022/08/17 06:22:44;;;;;;;7.78;4.90;;;;;;;21.86;90.44;100211.28;5230589;28;20032;-77
2022/08/17 06:25:22;;;;;;;7.22;4.70;;;;;;;22.07;92.61;100209.41;5234162;28;20017;-77
2022/08/17 06:27:57;;;;;;;8.55;4.90;;;;;;;22.27;96.02;100208.47;5222649;28;20070;-77
2022/08/17 06:30:33;;;;;;;8.70;5.40;;;;;;;22.76;88.29;100207.44;5225257;28;20029;-77
2022/08/17 06:33:12;;;;;;;7.65;4.22;;;;;;;24.30;81.48;100201.53;5230599;22;20050;-75
2022/08/17 06:35:54;;;;;;;6.63;4.25;;;;;;;25.44;80.39;100199.63;5181065;28;20033;-76
2022/08/17 06:38:54;;;;;;;10.00;4.88;;;;;;;26.54;74.38;100202.16;5183245;28;20496;-76
2022/08/17 06:41:33;;;;;;;6.22;4.13;;;;;;;25.95;76.37;100204.09;5185751;28;20112;-76
2022/08/17 06:44:25;;;;;;;6.25;4.18;;;;;;;25.01;80.58;100209.47;5188635;28;20034;-76
2022/08/17 06:47:12;;;;;;;7.00;3.95;;;;;;;24.36;84.24;100207.13;5186746;28;20026;-76
2022/08/17 06:49:53;;;;;;;5.75;3.60;;;;;;;25.72;81.11;100197.59;5188169;28;20076;-75
2022/08/17 06:52:28;;;;;;;5.50;3.63;;;;;;;27.76;73.93;100189.41;5183658;28;20126;-76
2022/08/17 06:55:05;;;;;;;7.93;3.55;;;;;;;29.65;67.72;100187.44;5191909;28;20037;-76
2022/08/17 06:57:40;;;;;;;6.18;3.88;;;;;;;28.61;67.60;100198.25;5189536;28;20061;-76
2022/08/17 07:00:12;;;;;;;5.32;3.60;;;;;;;28.72;67.75;100199.69;5190407;28;20104;-76
2022/08/17 07:02:58;;;;;;;7.28;3.67;;;;;;;28.96;69.41;100194.97;5188001;28;20026;-76
2022/08/17 07:05:35;;;;;;;;;;;;;;;30.27;64.48;100190.59;5185526;28;20095;-76
2022/08/17 07:08:32;;;;;;;5.05;3.30;;;;;;;31.57;63.26;100188.13;5180074;28;20408;-76
2022/08/17 07:11:11;;;;;;;6.68;3.38;;;;;;;31.60;63.08;100187.75;5183324;28;20058;-76
2022/08/17 07:14:17;;;;;;;3.65;2.67;;;;;;;32.35;63.11;100183.19;5191004;28;20482;-76
2022/08/17 07:16:52;;;;;;;5.05;3.45;;;;;;;33.36;59.49;100190.03;5170080;28;20041;-77
2022/08/17 07:19:26;;;;;;;5.20;3.20;;;;;;;31.39;64.63;100195.09;5185891;28;20026;-77
2022/08/17 07:21:56;;;;;;;7.30;3.20;;;;;;;30.99;64.37;100191.19;5189501;28;20018;-76
2022/08/17 07:24:48;;;;;;;9.67;2.80;;;;;;;29.99;67.27;100192.25;5190308;28;20186;-76
2022/08/17 07:27:21;;;;;;;4.72;3.15;;;;;;;30.01;68.65;100190.22;5181507;28;20048;-77
2022/08/17 07:30:01;;;;;;;4.75;3.00;;;;;;;30.24;66.31;100189.09;5189033;28;20025;-76
2022/08/17 07:32:45;;;;;;;7.03;3.08;;;;;;;30.33;67.36;100182.56;5191507;28;20036;-78
2022/08/17 07:35:27;;;;;;;5.25;3.00;;;;;;;30.76;62.88;100184.31;5194341;28;20029;-74
2022/08/17 07:38:21;;;;;;;5.65;2.88;;;;;;;30.44;65.20;100190.16;5188010;28;20037;-78
2022/08/17 07:41:01;;;;;;;7.72;3.33;;;;;;;29.03;69.24;100194.06;5178241;28;20377;-78
2022/08/17 07:43:44;;;;;;;6.70;3.47;;;;;;;30.85;65.07;100183.97;5180910;28;20168;-78
2022/08/17 07:49:38;;;;;;;4.75;3.00;;;;;;;32.34;62.61;100186.09;5190951;28;20068;-76
2022/08/17 07:52:30;;;;;;;6.63;2.70;;;;;;;32.46;61.30;100187.19;5191414;28;20022;-75
2022/08/17 07:55:30;;;;;;;5.90;3.00;;;;;;;31.42;64.82;100190.13;5189732;28;20766;-76
2022/08/17 07:58:02;;;;;;;5.35;2.67;;;;;;;32.81;60.48;100184.19;5189321;28;20033;-76
2022/08/17 08:00:32;;;;;;;5.32;2.70;;;;;;;33.10;60.66;100189.19;5191979;28;20030;-76
2022/08/17 08:03:20;;;;;;;4.18;2.58;;;;;;;32.57;64.15;100192.81;5192596;28;20026;-76
2022/08/17 08:05:56;;;;;;;9.48;3.03;;;;;;;33.66;57.87;100185.00;5187299;28;20025;-77
2022/08/17 08:08:29;;;;;;;5.40;2.65;;;;;;;34.21;57.22;100195.34;5192557;28;20712;-74
2022/08/17 08:11:10;;;;;;;4.03;2.20;;;;;;;33.26;59.32;100200.47;5182349;28;20415;-74
2022/08/17 08:13:44;;;;;;;4.05;2.50;;;;;;;33.77;56.67;100196.06;5187789;28;20361;-78
2022/08/17 08:16:21;;;;;;;6.45;2.60;;;;;;;33.50;58.79;100201.72;5179885;28;20112;-76
2022/08/17 08:18:58;;;;;;;4.40;2.33;;;;;;;34.46;57.84;100196.25;5186940;28;20472;-76
2022/08/17 08:21:47;;;;;;;6.07;2.63;;;;;;;33.25;59.79;100208.81;5192021;28;20553;-76
2022/08/17 08:24:29;;;;;;;3.13;2.28;;;;;;;31.53;63.06;100205.78;5186127;28;20026;-75
2022/08/17 08:27:21;;;;;;;6.63;2.63;;;;;;;31.25;66.99;100213.06;5191270;28;20104;-78
2022/08/17 08:29:54;;;;;;;5.13;2.80;;;;;;;31.90;64.31;100210.00;5186347;28;20029;-76
2022/08/17 08:32:36;;;;;;;6.05;3.00;;;;;;;31.51;64.55;100217.84;5192627;28;20025;-78
2022/08/17 08:35:19;;;;;;;4.68;2.80;;;;;;;31.14;66.22;100218.97;5192820;28;20439;-76
2022/08/17 08:38:01;;;;;;;7.85;3.35;;;;;;;32.38;62.39;100215.25;5185925;28;20036;-78
2022/08/17 08:40:48;;;;;;;5.85;2.90;;;;;;;33.05;60.57;100218.78;5184405;28;20029;-75
2022/08/17 08:43:54;;;;;;;4.05;2.85;;;;;;;34.96;56.01;100214.34;5181705;28;20080;-76
2022/08/17 08:46:35;;;;;;;4.93;3.13;;;;;;;35.44;56.08;100208.97;5179796;28;20579;-76
2022/08/17 08:49:24;;;;;;;8.00;3.65;;;;;;;36.43;52.79;100210.44;5190675;28;20501;-75
2022/08/17 08:51:57;;;;;;;4.93;2.70;;;;;;;36.45;52.17;100212.94;5187247;28;20037;-76
2022/08/17 08:54:30;;;;;;;5.50;2.90;;;;;;;35.24;55.09;100216.47;5192152;28;20029;-75
2022/08/17 08:57:30;;;;;;;9.15;2.92;;;;;;;37.13;51.06;100209.66;5190456;28;20141;-76
2022/08/17 09:00:23;;;;;;;7.47;2.60;;;;;;;34.66;57.45;100207.84;5186384;28;20388;-76
2022/08/17 09:03:16;;;;;;;7.00;2.65;;;;;;;35.54;56.25;100212.03;5185821;28;20033;-76
2022/08/17 09:05:52;;;;;;;5.00;2.35;;;;;;;35.85;52.91;100216.56;5185312;28;20491;-76
2022/08/17 09:08:26;;;;;;;3.40;2.40;;;;;;;34.68;55.40;100208.50;5185721;28;20029;-76
2022/08/17 09:11:25;;;;;;;5.32;2.30;;;;;;;35.92;52.43;100198.25;5183397;28;20620;-76
2022/08/17 09:13:59;;;;;;;4.75;2.90;;;;;;;34.91;54.41;100204.16;5173399;28;20468;-76
2022/08/17 09:16:51;;;;;;;4.68;2.60;;;;;;;35.31;51.23;100195.50;5180141;28;20113;-76
2022/08/17 09:19:29;;;;;;;3.35;2.15;;;;;;;34.79;54.29;100199.63;5185603;28;20088;-75
2022/08/17 09:22:10;;;;;;;3.83;2.53;;;;;;;34.57;54.36;100198.28;5191460;28;20021;-76
2022/08/17 09:24:55;;;;;;;7.25;2.30;;;;;;;34.07;55.58;100202.66;5191924;28;20031;-75
2022/08/17 09:27:31;;;;;;;8.88;2.70;;;;;;;32.19;56.25;100204.38;5186722;28;20032;-76
2022/08/17 09:30:07;;;;;;;4.80;2.55;;;;;;;32.46;54.76;100203.41;5188627;28;20293;-76
2022/08/17 09:32:41;;;;;;;5.88;2.30;;;;;;;32.99;55.68;100214.19;5189217;28;20029;-75
2022/08/17 09:35:16;;;;;;;2.72;1.95;;;;;;;33.27;54.92;100202.16;5191992;28;20500;-76
2022/08/17 09:37:52;;;;;;;9.05;2.45;;;;;;;32.89;55.57;100192.09;5186721;28;20406;-75
2022/08/17 09:40:27;;;;;;;6.03;2.40;;;;;;;32.60;54.79;100188.88;5180559;28;20069;-76
2022/08/17 09:43:11;;;;;;;;;;;;;;;32.64;54.79;100188.28;5184205;28;20029;-76
2022/08/17 09:45:49;;;;;;;4.90;2.28;;;;;;;32.51;55.39;100182.81;5191922;28;20405;-76
2022/08/17 09:48:26;;;;;;;5.88;2.20;;;;;;;32.49;54.53;100184.06;5184154;28;20038;-77
2022/08/17 09:51:30;;;;;;;5.55;2.17;;;;;;;32.58;56.06;100182.84;5185495;28;20079;-77
2022/08/17 09:54:03;;;;;;;5.68;1.92;;;;;;;32.37;57.15;100186.53;5177688;28;20530;-77
2022/08/17 09:56:56;;;;;;;8.25;2.40;;;;;;;31.97;58.40;100190.09;5189673;28;20065;-76
2022/08/17 09:59:41;;;;;;;9.48;2.40;;;;;;;32.10;57.19;100179.31;5186112;28;20025;-77
2022/08/17 10:02:49;;;;;;;8.77;3.05;;;;;;;32.43;57.82;100179.47;5189087;28;20061;-77
2022/08/17 10:05:22;;;;;;;4.60;2.10;;;;;;;32.58;56.21;100182.84;5184025;28;20026;-77
2022/08/17 10:08:02;;;;;;;5.43;1.65;;;;;;;32.43;53.17;100174.91;5188705;28;20076;-76
2022/08/17 10:10:41;;;;;;;3.50;1.70;;;;;;;32.54;53.95;100185.13;5189804;28;20025;-77
2022/08/17 10:13:32;;;;;;;6.30;2.10;;;;;;;32.08;54.02;100186.78;5187105;28;20038;-77
2022/08/17 10:16:13;;;;;;;3.00;1.48;;;;;;;31.95;55.07;100181.34;5179425;28;20148;-76
2022/08/17 10:18:46;;;;;;;3.50;1.67;;;;;;;31.94;51.16;100176.13;5178553;28;20825;-76
2022/08/17 10:27:06;;;;;;;2.92;1.50;;;;;;;32.11;54.74;100178.28;5185880;28;20057;-76
2022/08/17 10:29:43;;;;;;;3.33;1.30;;;;;;;32.24;52.85;100162.13;5184102;28;20093;-76
2022/08/17 10:32:24;;;;;;;6.32;1.50;;;;;;;32.08;53.76;100165.13;5189873;28;20410;-76
2022/08/17 10:35:00;;;;;;;3.50;1.40;;;;;;;32.33;51.04;100158.19;5183488;28;20069;-76
2022/08/17 10:38:09;;;;;;;3.33;1.58;;;;;;;32.00;52.63;100168.03;5185527;28;20026;-76
2022/08/17 10:40:45;;;;;;;5.80;1.63;;;;;;;31.81;51.42;100157.09;5187620;28;20108;-77
2022/08/17 10:43:18;;;;;;;7.05;1.48;;;;;;;31.57;50.86;100162.97;5185735;28;20026;-76
2022/08/17 10:46:02;;;;;;;3.47;1.60;;;;;;;31.44;50.43;100162.88;5178805;28;20045;-74
2022/08/17 10:48:36;;;;;;;7.45;1.60;;;;;;;31.56;52.93;100161.31;5187229;28;20579;-76
2022/08/17 10:51:37;;;;;;;2.92;1.67;;;;;;;31.77;53.23;100164.81;5181746;28;20057;-76
2022/08/17 10:54:32;;;;;;;4.72;1.50;;;;;;;31.81;52.13;100157.09;5186906;28;20160;-77
2022/08/17 10:57:32;;;;;;;3.35;1.35;;;;;;;31.40;50.81;100157.03;5185198;28;20079;-76
2022/08/17 11:00:14;;;;;;;7.00;1.60;;;;;;;31.42;50.63;100152.28;5182859;28;20056;-76
2022/08/17 11:02:48;;;;;;;2.42;1.40;;;;;;;31.49;51.44;100153.16;5193252;28;20108;-76
2022/08/17 11:05:38;;;;;;;6.75;1.60;;;;;;;31.76;52.65;100149.63;5190450;28;20033;-76
2022/08/17 11:08:58;;;;;;;3.65;1.40;;;;;;;31.74;53.35;100145.44;5191248;28;20040;-76
2022/08/17 11:11:49;;;;;;;3.00;1.20;;;;;;;31.59;51.42;100142.84;5176020;28;20025;-76
2022/08/17 11:14:42;;;;;;;5.28;1.40;;;;;;;31.32;52.38;100151.78;5185332;28;20154;-76
2022/08/17 11:17:28;;;;;;;3.00;1.55;;;;;;;31.13;51.03;100144.38;5189712;28;20165;-76
2022/08/17 11:20:24;;;;;;;5.57;1.67;;;;;;;31.37;51.39;100151.22;5185847;28;20044;-76
2022/08/17 11:23:17;;;;;;;3.75;1.45;;;;;;;31.49;51.35;100153.16;5177810;28;20038;-76
2022/08/17 11:25:52;;;;;;;7.43;1.73;;;;;;;31.58;49.69;100149.28;5185315;28;20376;-75
2022/08/17 11:28:22;;;;;;;8.60;1.60;;;;;;;31.65;51.70;100149.31;5190220;28;20098;-76
2022/08/17 11:30:56;;;;;;;5.77;1.40;;;;;;;31.65;51.61;100142.06;5189829;28;20503;-76
2022/08/17 11:33:35;;;;;;;3.95;1.40;;;;;;;31.91;52.62;100138.66;5187509;28;20190;-76
2022/08/17 11:36:18;;;;;;;4.00;1.40;;;;;;;32.03;52.06;100129.75;5189322;28;21244;-76
2022/08/17 11:39:14;;;;;;;2.22;1.40;;;;;;;31.73;50.79;100147.28;5184931;28;20033;-76
2022/08/17 11:42:18;;;;;;;4.72;1.60;;;;;;;31.79;50.57;100140.25;5192529;28;20032;-76
2022/08/17 11:44:56;;;;;;;5.18;1.50;;;;;;;31.62;50.28;100130.78;5156852;28;20041;-76
2022/08/17 11:53:58;;;;;;;3.08;1.48;;;;;;;31.56;51.86;100120.78;5183007;28;20566;-76
2022/08/17 11:56:39;;;;;;;5.00;1.77;;;;;;;31.57;51.15;100119.72;5188471;28;20491;-76
2022/08/17 11:59:43;;;;;;;2.40;1.45;;;;;;;31.55;50.03;100117.22;5188330;28;20060;-77
2022/08/17 12:02:33;;;;;;;11.27;1.80;;;;;;;31.81;52.68;100111.13;5190456;28;20434;-77
2022/08/17 12:05:16;;;;;;;5.80;1.77;;;;;;;31.64;51.91;100105.22;5189051;28;20033;-76
2022/08/17 12:07:59;;;;;;;5.68;1.67;;;;;;;31.74;51.47;100107.59;5188599;28;20049;-76
2022/08/17 12:10:34;;;;;;;4.32;1.55;;;;;;;31.70;51.09;100101.72;5188194;28;20033;-76
2022/08/17 12:13:15;;;;;;;4.22;1.67;;;;;;;31.46;51.67;100104.91;5190104;28;20041;-76
2022/08/17 12:15:49;;;;;;;2.50;1.58;;;;;;;31.53;50.44;100107.66;5189474;28;20414;-76
2022/08/17 12:18:28;;;;;;;6.50;1.92;;;;;;;31.40;49.79;100099.47;5180613;28;20029;-75
2022/08/17 12:21:18;;;;;;;2.13;1.40;;;;;;;31.22;50.21;100107.25;5183405;28;20034;-77
2022/08/17 12:24:13;;;;;;;3.85;1.42;;;;;;;31.29;51.52;100111.66;5187658;28;20026;-76
2022/08/17 12:26:51;;;;;;;3.67;1.58;;;;;;;31.39;51.66;100109.44;5189930;28;20044;-76
2022/08/17 12:29:22;;;;;;;3.38;1.63;;;;;;;31.22;51.04;100107.25;5185334;28;20476;-76
2022/08/17 12:31:53;;;;;;;3.78;1.40;;;;;;;30.97;49.40;100106.84;5189674;28;20060;-74
2022/08/17 12:34:27;;;;;;;3.17;1.50;;;;;;;31.10;51.89;100112.34;5178954;23;20038;-72
2022/08/17 12:37:06;;;;;;;4.47;1.85;;;;;;;31.39;49.88;100098.63;5160493;28;20076;-72
2022/08/17 12:39:37;;;;;;;3.33;1.70;;;;;;;31.33;50.78;100094.03;5170685;28;20022;-72